Time;durP1;ratioP1;P1;durP2;ratioP2;P2;SDS_P1;SDS_P2;PMS_P1;PMS_P2;Temp;Humidity;BMP_temperature;BMP_pressure;BME280_temperature;BME280_humidity;BME280_pressure;Samples;Min_cycle;Max_cycle;Signal;HPM_P1;HPM_P2
2023/12/03 00:00:08;;;;;;;29.13;14.60;;;1.30;99.90;;;;;;5048511;28;20049;-83
2023/12/03 00:02:35;;;;;;;31.25;15.82;;;1.20;99.90;;;;;;5051741;28;20094;-82
2023/12/03 00:05:02;;;;;;;29.90;15.88;;;1.20;99.90;;;;;;5053082;28;20053;-83
2023/12/03 00:07:29;;;;;;;27.58;14.27;;;1.20;99.90;;;;;;5053799;28;20051;-83
2023/12/03 00:09:55;;;;;;;27.10;14.57;;;1.60;99.90;;;;;;5064437;28;20138;-83
2023/12/03 00:12:21;;;;;;;30.80;15.15;;;1.10;99.90;;;;;;5064949;28;20115;-83
2023/12/03 00:14:47;;;;;;;26.23;13.95;;;1.10;99.90;;;;;;5052094;28;20131;-81
2023/12/03 00:17:12;;;;;;;29.27;15.18;;;1.10;99.90;;;;;;5068549;28;20056;-81
2023/12/03 00:19:40;;;;;;;26.52;14.02;;;1.10;99.90;;;;;;5050760;28;20052;-82
2023/12/03 00:22:06;;;;;;;23.63;13.80;;;1.40;99.90;;;;;;5059339;28;20411;-83
2023/12/03 00:24:31;;;;;;;27.83;14.88;;;1.10;99.90;;;;;;5069627;28;20036;-83
2023/12/03 00:26:58;;;;;;;23.10;12.85;;;1.10;99.90;;;;;;5069745;28;20128;-82
2023/12/03 00:29:24;;;;;;;23.90;13.63;;;2.50;99.90;;;;;;5063320;28;20041;-83
2023/12/03 00:31:50;;;;;;;26.80;14.45;;;1.10;99.90;;;;;;5050316;28;20259;-82
2023/12/03 00:34:15;;;;;;;25.70;13.45;;;1.00;99.90;;;;;;5051920;28;20628;-83
2023/12/03 00:36:41;;;;;;;27.67;14.50;;;1.30;99.90;;;;;;5050612;28;20243;-83
2023/12/03 00:39:07;;;;;;;24.08;12.95;;;1.00;99.90;;;;;;5050964;28;20562;-82
2023/12/03 00:41:33;;;;;;;27.30;16.10;;;1.00;99.90;;;;;;5059190;28;20049;-81
2023/12/03 00:43:58;;;;;;;23.98;13.02;;;1.00;99.90;;;;;;5049492;28;20045;-83
2023/12/03 00:46:24;;;;;;;23.48;12.27;;;1.00;99.90;;;;;;5049873;28;20053;-83
2023/12/03 00:48:50;;;;;;;21.55;12.02;;;1.00;99.90;;;;;;5049553;28;20448;-83
2023/12/03 00:51:15;;;;;;;22.73;12.55;;;1.00;99.90;;;;;;5049882;28;20060;-82
2023/12/03 00:53:42;;;;;;;22.63;12.73;;;2.10;99.90;;;;;;5049488;28;20136;-83
2023/12/03 00:56:08;;;;;;;22.25;10.57;;;1.00;99.90;;;;;;5052226;28;20115;-83
2023/12/03 00:58:34;;;;;;;20.30;11.60;;;1.00;99.90;;;;;;5054409;28;20053;-82
2023/12/03 01:01:00;;;;;;;21.05;11.57;;;1.00;99.90;;;;;;5061371;28;20053;-83
2023/12/03 01:03:25;;;;;;;20.80;11.65;;;1.00;99.90;;;;;;5049375;28;20048;-83
2023/12/03 01:05:51;;;;;;;19.38;11.48;;;1.10;99.90;;;;;;5050087;28;20128;-83
2023/12/03 01:08:17;;;;;;;17.73;10.50;;;0.90;99.90;;;;;;5065756;28;20040;-80
2023/12/03 01:10:42;;;;;;;17.48;9.77;;;0.90;99.90;;;;;;5053763;28;20456;-83
2023/12/03 01:13:08;;;;;;;20.60;11.90;;;1.20;99.90;;;;;;5064894;28;20123;-83
2023/12/03 01:15:34;;;;;;;21.17;11.10;;;0.80;99.90;;;;;;5058612;28;20131;-83
2023/12/03 01:17:59;;;;;;;21.38;10.95;;;0.80;99.90;;;;;;5052715;28;20060;-83
2023/12/03 01:20:25;;;;;;;17.85;11.05;;;0.80;99.90;;;;;;5058824;28;20500;-82
2023/12/03 01:22:50;;;;;;;20.20;9.73;;;0.80;99.90;;;;;;5055287;28;20044;-83
2023/12/03 01:25:16;;;;;;;17.73;10.90;;;0.80;99.90;;;;;;5063861;28;20040;-83
2023/12/03 01:27:42;;;;;;;20.55;10.73;;;0.80;99.90;;;;;;5057569;28;20407;-83
2023/12/03 01:30:08;;;;;;;22.27;11.40;;;0.70;99.90;;;;;;5051713;28;20060;-83
2023/12/03 01:32:33;;;;;;;21.40;11.55;;;0.70;99.90;;;;;;5053346;28;20037;-82
2023/12/03 01:34:59;;;;;;;20.30;11.30;;;0.70;99.90;;;;;;5049120;28;20052;-83
2023/12/03 01:37:24;;;;;;;22.90;11.80;;;0.70;99.90;;;;;;5057433;28;20072;-83
2023/12/03 01:39:50;;;;;;;18.98;10.88;;;0.60;99.90;;;;;;5058087;28;20041;-83
2023/12/03 01:42:16;;;;;;;17.55;10.00;;;0.60;99.90;;;;;;5067662;28;20496;-84
2023/12/03 01:44:41;;;;;;;18.65;10.68;;;0.90;99.90;;;;;;5068739;28;20087;-82
2023/12/03 01:47:08;;;;;;;17.83;10.65;;;0.50;99.90;;;;;;5067301;28;20052;-83
2023/12/03 01:49:33;;;;;;;18.60;10.45;;;0.60;99.90;;;;;;5059531;28;20048;-82
2023/12/03 01:52:00;;;;;;;17.38;9.73;;;0.50;99.90;;;;;;5062247;28;20049;-82
2023/12/03 01:54:35;;;;;;;18.92;10.88;;;0.50;99.90;;;;;;5049129;28;20072;-84
2023/12/03 01:57:00;;;;;;;17.48;9.82;;;0.50;99.90;;;;;;5059136;28;20044;-84
2023/12/03 01:59:26;;;;;;;16.70;9.45;;;0.50;99.90;;;;;;5064923;28;20068;-84
2023/12/03 02:01:52;;;;;;;18.50;11.38;;;0.50;99.90;;;;;;5073237;28;20048;-83
2023/12/03 02:04:18;;;;;;;15.93;9.25;;;0.50;99.90;;;;;;5053474;28;20047;-84
2023/12/03 02:06:43;;;;;;;16.73;9.82;;;1.20;99.90;;;;;;5063298;28;20049;-82
2023/12/03 02:09:09;;;;;;;16.90;10.18;;;0.50;99.90;;;;;;5057819;28;20139;-82
2023/12/03 02:11:35;;;;;;;18.92;10.50;;;0.50;99.90;;;;;;5067160;28;20471;-83
2023/12/03 02:14:02;;;;;;;16.80;9.48;;;0.40;99.90;;;;;;5055736;28;20098;-83
2023/12/03 02:16:30;;;;;;;17.33;10.38;;;0.70;99.90;;;;;;5070150;28;20147;-83
2023/12/03 02:18:56;;;;;;;17.50;10.25;;;0.40;99.90;;;;;;5055146;28;20505;-82
2023/12/03 02:21:22;;;;;;;16.90;9.18;;;0.40;99.90;;;;;;5059498;28;20111;-83
2023/12/03 02:23:47;;;;;;;16.48;9.02;;;1.20;99.90;;;;;;5068372;28;20128;-83
2023/12/03 02:26:13;;;;;;;16.98;9.43;;;0.60;99.90;;;;;;5056500;28;20103;-83
2023/12/03 02:28:39;;;;;;;16.90;10.20;;;0.30;99.90;;;;;;5062118;28;20041;-83
2023/12/03 02:31:05;;;;;;;15.50;9.07;;;0.30;99.90;;;;;;5060388;28;20568;-83
2023/12/03 02:33:31;;;;;;;17.35;9.77;;;0.30;99.90;;;;;;5060663;28;20056;-83
2023/12/03 02:35:56;;;;;;;14.80;9.15;;;0.30;99.90;;;;;;5053734;28;20150;-83
2023/12/03 02:38:22;;;;;;;16.05;9.68;;;0.30;99.90;;;;;;5062135;28;20505;-83
2023/12/03 02:40:47;;;;;;;17.30;9.15;;;0.30;99.90;;;;;;5067753;28;20041;-83
2023/12/03 02:43:13;;;;;;;15.57;9.48;;;1.10;99.90;;;;;;5052018;28;20061;-83
2023/12/03 02:45:39;;;;;;;15.35;9.20;;;0.80;99.90;;;;;;5052439;28;20049;-82
2023/12/03 02:48:04;;;;;;;14.07;8.93;;;0.20;99.90;;;;;;5065142;28;20570;-82
2023/12/03 02:50:30;;;;;;;14.95;9.15;;;0.20;99.90;;;;;;5058366;28;20049;-83
2023/12/03 02:52:56;;;;;;;17.10;9.77;;;0.20;99.90;;;;;;5069075;28;20048;-81
2023/12/03 02:55:21;;;;;;;16.50;10.10;;;0.20;99.90;;;;;;5053666;28;20053;-83
2023/12/03 02:57:47;;;;;;;13.80;8.60;;;1.20;99.90;;;;;;5055938;28;20397;-83
2023/12/03 03:00:13;;;;;;;15.93;9.93;;;0.10;99.90;;;;;;5051367;28;20044;-83
2023/12/03 03:02:39;;;;;;;14.90;9.48;;;0.10;99.90;;;;;;5051787;28;20048;-83
2023/12/03 03:05:05;;;;;;;19.10;9.88;;;0.10;99.90;;;;;;5051902;28;20062;-83
2023/12/03 03:07:31;;;;;;;19.45;11.13;;;0.10;99.90;;;;;;5061341;28;20055;-83
2023/12/03 03:09:56;;;;;;;18.63;10.05;;;0.10;99.90;;;;;;5059327;28;20407;-82
2023/12/03 03:12:22;;;;;;;21.65;11.55;;;0.10;99.90;;;;;;5051658;28;20053;-81
2023/12/03 03:14:48;;;;;;;25.65;14.13;;;0.10;99.90;;;;;;5067015;28;20047;-83
2023/12/03 03:17:13;;;;;;;49.58;19.35;;;0.10;99.90;;;;;;5055557;28;20072;-83
2023/12/03 03:19:43;;;;;;;167.70;34.28;;;0.10;99.90;;;;;;5065184;28;20499;-84
2023/12/03 03:22:13;;;;;;;126.28;33.10;;;0.10;99.90;;;;;;5064901;28;20055;-83
2023/12/03 03:24:40;;;;;;;235.13;44.97;;;0.10;99.90;;;;;;5053120;28;20036;-82
2023/12/03 03:27:06;;;;;;;145.20;35.97;;;0.10;99.90;;;;;;5065794;28;20040;-82
2023/12/03 03:29:34;;;;;;;213.60;46.40;;;0.10;99.90;;;;;;5059728;28;20373;-83
2023/12/03 03:31:59;;;;;;;247.23;47.55;;;0.10;99.90;;;;;;5060547;28;20052;-83
2023/12/03 03:34:25;;;;;;;330.23;62.13;;;0.10;99.90;;;;;;5062759;28;20110;-83
2023/12/03 03:36:51;;;;;;;209.45;49.05;;;0.20;99.90;;;;;;5054725;28;20076;-83
2023/12/03 03:39:16;;;;;;;227.98;50.45;;;1.00;99.90;;;;;;5054900;28;20045;-83
2023/12/03 03:41:42;;;;;;;201.98;46.58;;;0.60;99.90;;;;;;5051153;28;20488;-83
2023/12/03 03:44:07;;;;;;;185.10;49.85;;;0.20;99.90;;;;;;5054899;28;20040;-83
2023/12/03 03:46:33;;;;;;;423.60;77.95;;;0.20;99.90;;;;;;5039045;28;20052;-82
2023/12/03 03:48:58;;;;;;;352.48;66.43;;;0.20;99.90;;;;;;5069397;28;20122;-83
2023/12/03 03:51:24;;;;;;;474.10;92.55;;;0.50;99.90;;;;;;5064538;28;20064;-83
2023/12/03 03:53:50;;;;;;;193.23;56.05;;;0.20;99.90;;;;;;5051920;28;20053;-83
2023/12/03 03:56:16;;;;;;;397.60;80.57;;;0.20;99.90;;;;;;5055982;28;20437;-83
2023/12/03 03:58:42;;;;;;;260.00;69.32;;;1.30;99.90;;;;;;5060257;28;20061;-82
2023/12/03 04:01:08;;;;;;;461.48;97.07;;;1.30;99.90;;;;;;5050915;28;20059;-83
2023/12/03 04:03:34;;;;;;;318.60;83.85;;;0.30;99.90;;;;;;5054013;28;20040;-83
2023/12/03 04:06:03;;;;;;;336.75;88.60;;;0.30;99.90;;;;;;5067666;28;20049;-84
2023/12/03 04:08:29;;;;;;;333.10;83.03;;;0.40;99.90;;;;;;5055052;28;20119;-83
2023/12/03 04:10:55;;;;;;;272.52;74.32;;;0.40;99.90;;;;;;5059802;28;20033;-83
2023/12/03 04:13:21;;;;;;;355.45;90.47;;;0.40;99.90;;;;;;5069919;28;20044;-84
2023/12/03 04:15:47;;;;;;;355.23;89.30;;;0.40;99.90;;;;;;5068016;28;20083;-81
2023/12/03 04:18:12;;;;;;;586.78;128.00;;;0.50;99.90;;;;;;5055865;28;20053;-83
2023/12/03 04:20:38;;;;;;;513.65;111.72;;;1.30;99.90;;;;;;5055215;28;20506;-82
2023/12/03 04:23:04;;;;;;;378.13;78.65;;;0.50;99.90;;;;;;5063011;28;20044;-84
2023/12/03 04:25:30;;;;;;;389.70;81.95;;;0.50;99.90;;;;;;5061448;28;20048;-83
2023/12/03 04:27:56;;;;;;;387.77;82.32;;;0.60;99.90;;;;;;5069876;28;20056;-79
2023/12/03 04:30:22;;;;;;;349.77;83.68;;;0.60;99.90;;;;;;5069176;28;20051;-84
2023/12/03 04:32:47;;;;;;;428.80;89.47;;;0.60;99.90;;;;;;5064869;28;20033;-83
2023/12/03 04:35:14;;;;;;;397.65;88.68;;;0.70;99.90;;;;;;5058282;28;20060;-83
2023/12/03 04:37:40;;;;;;;308.85;73.43;;;0.70;99.90;;;;;;5060458;28;20048;-84
2023/12/03 04:40:06;;;;;;;261.80;67.60;;;0.70;99.90;;;;;;5068126;28;20045;-83
2023/12/03 04:42:32;;;;;;;251.63;65.55;;;0.70;99.90;;;;;;5066877;28;20110;-83
2023/12/03 04:44:58;;;;;;;349.80;62.67;;;0.70;99.90;;;;;;5063459;28;20037;-84
2023/12/03 04:47:23;;;;;;;204.25;50.78;;;0.70;99.90;;;;;;5058079;28;20037;-83
2023/12/03 04:49:49;;;;;;;185.55;38.25;;;0.70;99.90;;;;;;5061236;28;20051;-83
2023/12/03 04:52:15;;;;;;;148.68;34.55;;;0.70;99.90;;;;;;5053831;28;20056;-83
2023/12/03 04:54:40;;;;;;;172.25;39.13;;;0.70;99.90;;;;;;5050141;28;20048;-84
2023/12/03 04:57:06;;;;;;;134.40;33.88;;;0.80;99.90;;;;;;5049963;28;20064;-83
2023/12/03 04:59:32;;;;;;;238.57;43.70;;;0.70;99.90;;;;;;5034355;28;20083;-84
2023/12/03 05:01:57;;;;;;;151.13;34.67;;;0.80;99.90;;;;;;5056652;28;20114;-84
2023/12/03 05:04:25;;;;;;;121.40;29.52;;;0.80;99.90;;;;;;5055395;28;20152;-82
2023/12/03 05:06:51;;;;;;;223.98;40.47;;;1.10;99.90;;;;;;5054452;28;20059;-84
2023/12/03 05:09:17;;;;;;;165.75;32.90;;;0.80;99.90;;;;;;5053290;28;20041;-83
2023/12/03 05:11:44;;;;;;;276.88;36.85;;;0.80;99.90;;;;;;5069297;28;20056;-83
2023/12/03 05:14:10;;;;;;;225.90;36.40;;;0.80;99.90;;;;;;5062959;28;20435;-84
2023/12/03 05:16:36;;;;;;;239.07;35.80;;;0.80;99.90;;;;;;5067056;28;20048;-83
2023/12/03 05:19:02;;;;;;;137.63;28.70;;;1.90;99.90;;;;;;5068238;28;20065;-85
2023/12/03 05:21:27;;;;;;;216.35;37.88;;;0.80;99.90;;;;;;5062625;28;20056;-84
2023/12/03 05:23:53;;;;;;;97.07;27.27;;;0.90;99.90;;;;;;5060763;28;20407;-83
2023/12/03 05:26:19;;;;;;;111.20;27.45;;;0.90;99.90;;;;;;5061996;28;20447;-83
2023/12/03 05:28:44;;;;;;;72.78;24.60;;;0.90;99.90;;;;;;5058426;28;20467;-84
2023/12/03 05:31:10;;;;;;;92.75;26.73;;;1.90;99.90;;;;;;5058054;28;20052;-84
2023/12/03 05:33:36;;;;;;;168.88;32.60;;;0.90;99.90;;;;;;5051486;28;20049;-84
2023/12/03 05:36:01;;;;;;;123.03;28.17;;;0.90;99.90;;;;;;5059526;28;20053;-84
2023/12/03 05:38:27;;;;;;;185.63;32.42;;;0.90;99.90;;;;;;5056683;28;20064;-82
2023/12/03 05:40:53;;;;;;;120.38;29.65;;;1.20;99.90;;;;;;5063510;28;20044;-84
2023/12/03 05:43:18;;;;;;;152.68;34.03;;;0.90;99.90;;;;;;5054242;28;20041;-84
2023/12/03 05:45:44;;;;;;;133.52;35.30;;;0.90;99.90;;;;;;5055101;28;20519;-83
2023/12/03 05:48:10;;;;;;;211.32;41.63;;;0.90;99.90;;;;;;5049757;28;20060;-84
2023/12/03 05:50:36;;;;;;;183.50;41.58;;;1.00;99.90;;;;;;5048943;28;20052;-83
2023/12/03 05:53:01;;;;;;;224.27;46.53;;;1.00;99.90;;;;;;5050137;28;20048;-84
2023/12/03 05:55:27;;;;;;;236.88;44.72;;;1.00;99.90;;;;;;5048748;28;20479;-83
2023/12/03 05:57:54;;;;;;;138.23;33.38;;;1.00;99.90;;;;;;5061299;28;20073;-83
2023/12/03 06:00:19;;;;;;;230.57;53.00;;;1.00;99.90;;;;;;5062764;28;20040;-84
2023/12/03 06:02:45;;;;;;;172.63;43.55;;;1.00;99.90;;;;;;5048753;28;20412;-82
2023/12/03 06:05:11;;;;;;;301.42;59.47;;;1.50;99.90;;;;;;5062221;28;20056;-83
2023/12/03 06:07:37;;;;;;;340.17;61.92;;;1.00;99.90;;;;;;5065159;28;20045;-83
2023/12/03 06:10:03;;;;;;;331.95;64.13;;;1.00;99.90;;;;;;5050287;28;20091;-83
2023/12/03 06:12:29;;;;;;;319.50;59.10;;;1.00;99.90;;;;;;5051835;28;20056;-84
2023/12/03 06:14:55;;;;;;;268.17;55.92;;;1.00;99.90;;;;;;5054353;28;20450;-83
2023/12/03 06:17:20;;;;;;;194.18;45.13;;;2.00;99.90;;;;;;5054183;28;20061;-84
2023/12/03 06:19:46;;;;;;;284.00;55.50;;;1.30;99.90;;;;;;5058732;28;20492;-84
2023/12/03 06:22:12;;;;;;;219.18;46.67;;;1.00;99.90;;;;;;5058113;28;20117;-83
2023/12/03 06:24:37;;;;;;;173.82;41.30;;;1.00;99.90;;;;;;5059103;28;20431;-84
2023/12/03 06:27:03;;;;;;;188.65;38.58;;;1.00;99.90;;;;;;5062065;28;20040;-83
2023/12/03 06:29:29;;;;;;;174.90;32.15;;;1.00;99.90;;;;;;5063285;28;20048;-83
2023/12/03 06:31:54;;;;;;;115.13;30.17;;;1.50;99.90;;;;;;5057955;28;20087;-84
2023/12/03 06:34:20;;;;;;;100.70;26.45;;;1.00;99.90;;;;;;5056081;28;20059;-84
2023/12/03 06:36:46;;;;;;;64.57;23.75;;;1.00;99.90;;;;;;5060281;28;20037;-84
2023/12/03 06:39:11;;;;;;;107.57;24.77;;;1.00;99.90;;;;;;5043230;28;20401;-85
2023/12/03 06:41:38;;;;;;;91.32;22.17;;;1.90;99.90;;;;;;5057979;28;20049;-85
2023/12/03 06:44:04;;;;;;;87.22;22.77;;;1.00;99.90;;;;;;5062400;28;20083;-84
2023/12/03 06:46:30;;;;;;;110.93;25.55;;;1.00;99.90;;;;;;5058506;28;20121;-87
2023/12/03 06:48:56;;;;;;;79.75;23.80;;;1.10;99.90;;;;;;5063488;28;20509;-88
2023/12/03 06:51:21;;;;;;;69.30;22.50;;;2.30;99.90;;;;;;5058103;28;20057;-85
2023/12/03 06:53:47;;;;;;;67.95;21.95;;;1.00;99.90;;;;;;5056057;28;20093;-87
2023/12/03 06:56:12;;;;;;;85.93;21.88;;;1.00;99.90;;;;;;5058500;28;20037;-85
2023/12/03 06:58:38;;;;;;;89.85;24.65;;;1.70;99.90;;;;;;5059710;28;20048;-84
2023/12/03 07:01:04;;;;;;;91.75;23.55;;;1.00;99.90;;;;;;5057036;28;20049;-85
2023/12/03 07:03:30;;;;;;;69.43;22.50;;;1.00;99.90;;;;;;5067427;28;20075;-85
2023/12/03 07:05:56;;;;;;;70.22;21.13;;;1.00;99.90;;;;;;5065497;28;20389;-86
2023/12/03 07:08:21;;;;;;;67.65;20.50;;;1.80;99.90;;;;;;5059919;28;20166;-85
2023/12/03 07:10:47;;;;;;;103.45;23.98;;;1.10;99.90;;;;;;5057038;28;20049;-86
2023/12/03 07:13:13;;;;;;;86.32;24.60;;;1.10;99.90;;;;;;5057918;28;20044;-83
2023/12/03 07:15:38;;;;;;;90.22;21.48;;;1.10;99.90;;;;;;5058848;28;20049;-85
2023/12/03 07:18:04;;;;;;;88.50;22.08;;;1.10;99.90;;;;;;5062353;28;20516;-84
2023/12/03 07:20:30;;;;;;;78.25;23.52;;;1.10;99.90;;;;;;5067310;28;20045;-84
2023/12/03 07:22:55;;;;;;;76.05;20.92;;;1.10;99.90;;;;;;5063885;28;20487;-86
2023/12/03 07:25:22;;;;;;;78.13;21.55;;;1.10;99.90;;;;;;5057485;28;20052;-85
2023/12/03 07:27:48;;;;;;;94.40;26.75;;;1.10;99.90;;;;;;5063443;28;20072;-85
2023/12/03 07:30:14;;;;;;;55.55;18.92;;;1.10;99.90;;;;;;5058686;28;20055;-84
2023/12/03 07:32:40;;;;;;;74.78;22.63;;;1.10;99.90;;;;;;5056590;28;20423;-84
2023/12/03 07:35:06;;;;;;;81.28;22.63;;;1.20;99.90;;;;;;5057996;28;20388;-86
2023/12/03 07:37:31;;;;;;;76.72;22.73;;;1.10;99.90;;;;;;5056481;28;20136;-84
2023/12/03 07:39:57;;;;;;;67.30;20.70;;;1.10;99.90;;;;;;5062636;28;20133;-83
2023/12/03 07:42:25;;;;;;;79.60;23.63;;;1.20;99.90;;;;;;5056416;28;20040;-82
2023/12/03 07:44:50;;;;;;;65.13;20.13;;;1.20;99.90;;;;;;5069680;28;20059;-82
2023/12/03 07:47:16;;;;;;;60.45;21.30;;;1.20;99.90;;;;;;5070485;28;20464;-83
2023/12/03 07:49:43;;;;;;;92.63;23.77;;;1.20;99.90;;;;;;5067253;28;20044;-83
2023/12/03 07:52:09;;;;;;;83.00;24.30;;;1.20;99.90;;;;;;5068129;28;20135;-83
2023/12/03 07:54:34;;;;;;;85.93;22.77;;;1.30;99.90;;;;;;5071329;28;20163;-84
2023/12/03 07:57:00;;;;;;;87.68;25.30;;;1.20;99.90;;;;;;5070111;28;20051;-80
2023/12/03 07:59:26;;;;;;;89.72;24.52;;;1.30;99.90;;;;;;5070340;28;20435;-79
2023/12/03 08:01:51;;;;;;;81.30;24.02;;;1.30;99.90;;;;;;5070379;28;20078;-80
2023/12/03 08:04:17;;;;;;;80.60;21.08;;;1.30;99.90;;;;;;5044681;28;20044;-79
2023/12/03 08:06:43;;;;;;;54.45;19.50;;;1.90;99.90;;;;;;5050780;28;20051;-78
2023/12/03 08:09:08;;;;;;;60.17;19.55;;;1.30;99.90;;;;;;5051166;28;20103;-79
2023/12/03 08:11:35;;;;;;;49.80;19.27;;;1.30;99.90;;;;;;5064271;28;20048;-79
2023/12/03 08:14:02;;;;;;;72.97;24.05;;;1.30;99.90;;;;;;5068773;28;20056;-80
2023/12/03 08:16:28;;;;;;;63.65;18.88;;;1.30;99.90;;;;;;5063983;28;20106;-80
2023/12/03 08:18:53;;;;;;;51.70;18.02;;;2.00;99.90;;;;;;5068954;28;20492;-79
2023/12/03 08:21:19;;;;;;;71.63;22.17;;;1.40;99.90;;;;;;5063666;28;20094;-80
2023/12/03 08:23:44;;;;;;;53.35;18.67;;;1.60;99.90;;;;;;5059538;28;20052;-79
2023/12/03 08:26:10;;;;;;;61.63;20.25;;;1.40;99.90;;;;;;5063363;28;20427;-81
2023/12/03 08:28:36;;;;;;;66.72;20.90;;;1.40;99.90;;;;;;5069096;28;20060;-80
2023/12/03 08:31:02;;;;;;;56.65;17.48;;;2.20;99.90;;;;;;5066950;28;20044;-81
2023/12/03 08:33:27;;;;;;;64.28;20.63;;;1.40;99.90;;;;;;5053156;28;20040;-80
2023/12/03 08:35:53;;;;;;;52.78;20.80;;;1.40;99.90;;;;;;5050144;28;20463;-78
2023/12/03 08:38:19;;;;;;;61.78;20.73;;;1.40;99.90;;;;;;5066287;28;20051;-80
2023/12/03 08:40:44;;;;;;;56.70;19.65;;;1.50;99.90;;;;;;5065339;28;20594;-80
2023/12/03 08:43:10;;;;;;;62.67;19.65;;;1.50;99.90;;;;;;5062631;28;20052;-80
2023/12/03 08:45:36;;;;;;;56.92;17.20;;;1.50;99.90;;;;;;5068531;28;20048;-79
2023/12/03 08:48:01;;;;;;;56.10;19.65;;;1.50;99.90;;;;;;5068898;28;20052;-79
2023/12/03 08:50:29;;;;;;;52.25;18.30;;;1.50;99.90;;;;;;5069829;28;20056;-80
2023/12/03 08:52:55;;;;;;;45.50;16.30;;;1.50;99.90;;;;;;5060331;28;20458;-79
2023/12/03 08:55:21;;;;;;;61.95;19.75;;;1.50;99.90;;;;;;5056964;28;20503;-79
2023/12/03 08:57:47;;;;;;;50.42;16.63;;;1.60;99.90;;;;;;5071053;28;20076;-80
2023/12/03 09:00:15;;;;;;;60.30;20.55;;;1.60;99.90;;;;;;5070628;28;20110;-79
2023/12/03 09:02:44;;;;;;;55.78;17.55;;;1.60;99.90;;;;;;5067074;28;20480;-81
2023/12/03 09:05:10;;;;;;;51.08;18.95;;;1.60;99.90;;;;;;5050576;28;20059;-82
2023/12/03 09:07:36;;;;;;;57.60;20.80;;;1.60;99.90;;;;;;5049778;28;20124;-81
2023/12/03 09:10:02;;;;;;;44.40;17.55;;;1.60;99.90;;;;;;5063097;28;20145;-82
2023/12/03 09:12:28;;;;;;;52.03;19.38;;;1.60;99.90;;;;;;5068865;28;20587;-83
2023/12/03 09:14:54;;;;;;;52.25;18.30;;;1.60;99.90;;;;;;5070306;28;20123;-85
2023/12/03 09:17:19;;;;;;;52.50;18.13;;;1.70;99.90;;;;;;5069560;28;20063;-84
2023/12/03 09:19:45;;;;;;;46.95;18.10;;;1.70;99.90;;;;;;5060109;28;20139;-83
2023/12/03 09:22:10;;;;;;;47.33;18.67;;;1.80;99.90;;;;;;5058986;28;20076;-86
2023/12/03 09:24:36;;;;;;;49.97;18.83;;;1.70;99.90;;;;;;5061325;28;20101;-84
2023/12/03 09:27:02;;;;;;;50.90;17.98;;;1.70;99.90;;;;;;5069736;28;20420;-84
2023/12/03 09:29:28;;;;;;;49.67;17.98;;;1.70;99.90;;;;;;5068469;28;20086;-84
2023/12/03 09:31:53;;;;;;;50.08;19.60;;;1.70;99.90;;;;;;5068067;28;20045;-83
2023/12/03 09:34:19;;;;;;;58.50;19.80;;;1.70;99.90;;;;;;5069687;28;20044;-83
2023/12/03 09:36:45;;;;;;;48.38;18.60;;;1.80;99.90;;;;;;5069092;28;20407;-83
2023/12/03 09:39:11;;;;;;;50.40;18.50;;;1.80;99.90;;;;;;5068860;28;20404;-83
2023/12/03 09:41:51;;;;;;;50.42;18.83;;;1.80;99.90;;;;;;5058778;28;20041;-87
2023/12/03 09:44:22;;;;;;;56.13;18.77;;;1.80;99.90;;;;;;5067101;28;20044;-83
2023/12/03 09:46:50;;;;;;;48.08;19.35;;;1.90;99.90;;;;;;5069198;28;20048;-82
2023/12/03 09:49:21;;;;;;;54.47;20.08;;;1.90;99.90;;;;;;5057962;28;20136;-79
2023/12/03 09:51:47;;;;;;;45.10;18.58;;;1.90;99.90;;;;;;5049621;28;20091;-83
2023/12/03 09:54:13;;;;;;;44.95;18.38;;;1.90;99.90;;;;;;5063233;28;20036;-83
2023/12/03 09:56:40;;;;;;;47.50;19.00;;;2.00;99.90;;;;;;5070721;28;20435;-83
2023/12/03 09:59:08;;;;;;;53.22;22.75;;;2.00;99.90;;;;;;5061284;28;20125;-83
2023/12/03 10:01:38;;;;;;;52.78;21.98;;;2.00;99.90;;;;;;5064522;28;20051;-83
2023/12/03 10:04:04;;;;;;;47.13;19.38;;;2.00;99.90;;;;;;5056395;28;20052;-82
2023/12/03 10:06:34;;;;;;;44.20;20.33;;;2.00;99.90;;;;;;5068810;28;20052;-80
2023/12/03 10:09:02;;;;;;;53.05;20.20;;;2.10;99.90;;;;;;5070293;28;20048;-83
2023/12/03 10:11:37;;;;;;;53.70;23.13;;;2.00;99.90;;;;;;5061534;28;20049;-83
2023/12/03 10:14:05;;;;;;;48.50;21.95;;;2.10;99.90;;;;;;5048968;28;20120;-83
2023/12/03 10:16:31;;;;;;;44.70;19.85;;;2.10;99.90;;;;;;5047571;28;20474;-83
2023/12/03 10:18:57;;;;;;;43.72;19.95;;;2.10;99.90;;;;;;5053920;28;20057;-84
2023/12/03 10:21:24;;;;;;;50.10;20.88;;;2.20;99.90;;;;;;5053749;28;20044;-83
2023/12/03 10:23:58;;;;;;;49.45;21.02;;;2.20;99.90;;;;;;5053009;28;20056;-81
2023/12/03 10:26:24;;;;;;;49.60;23.38;;;2.20;99.90;;;;;;5065220;28;20416;-77
2023/12/03 10:28:50;;;;;;;45.45;21.63;;;2.20;99.90;;;;;;5054032;28;20051;-77
2023/12/03 10:31:17;;;;;;;46.72;21.05;;;2.20;99.90;;;;;;5059601;28;20037;-81
2023/12/03 10:33:43;;;;;;;51.40;23.10;;;2.30;99.90;;;;;;5071963;28;20458;-80
2023/12/03 10:36:09;;;;;;;47.53;20.02;;;2.30;99.90;;;;;;5072520;28;20605;-80
2023/12/03 10:38:39;;;;;;;46.65;21.17;;;2.30;99.90;;;;;;5072479;28;20072;-81
2023/12/03 10:41:07;;;;;;;47.42;20.92;;;2.30;99.90;;;;;;5064621;28;20464;-80
2023/12/03 10:43:39;;;;;;;45.72;20.88;;;2.70;99.90;;;;;;5071768;28;20499;-79
2023/12/03 10:46:14;;;;;;;47.22;22.90;;;2.40;99.90;;;;;;5057333;28;20056;-81
2023/12/03 10:48:40;;;;;;;50.33;22.85;;;2.40;99.90;;;;;;5052433;28;20128;-78
2023/12/03 10:51:08;;;;;;;45.65;20.85;;;2.50;99.90;;;;;;5055046;28;20044;-82
2023/12/03 10:53:35;;;;;;;42.25;21.05;;;2.50;99.90;;;;;;5072077;28;20518;-76
2023/12/03 10:56:05;;;;;;;45.00;21.00;;;2.60;99.90;;;;;;5072297;28;20041;-77
2023/12/03 10:58:36;;;;;;;40.47;19.83;;;2.60;99.90;;;;;;5051904;28;20084;-77
2023/12/03 11:01:20;;;;;;;41.35;19.73;;;2.60;99.90;;;;;;5053745;28;20128;-77
2023/12/03 11:04:05;;;;;;;43.72;21.95;;;2.60;99.90;;;;;;5060825;28;20053;-77
2023/12/03 11:06:33;;;;;;;43.75;20.52;;;2.70;99.90;;;;;;5067525;28;20048;-78
2023/12/03 11:08:59;;;;;;;40.78;20.60;;;2.70;99.90;;;;;;5067156;28;20096;-77
2023/12/03 11:11:26;;;;;;;45.45;21.60;;;2.80;99.90;;;;;;5058035;28;20073;-77
2023/12/03 11:13:55;;;;;;;42.20;20.15;;;2.80;99.90;;;;;;5056314;28;20048;-80
2023/12/03 11:16:21;;;;;;;43.88;22.05;;;2.80;99.90;;;;;;5067349;28;20048;-77
2023/12/03 11:19:16;;;;;;;45.97;23.40;;;2.90;99.90;;;;;;5052639;28;20049;-76
2023/12/03 11:21:45;;;;;;;;;;;2.90;99.90;;;;;;5064320;28;20060;-76
2023/12/03 11:24:44;;;;;;;42.33;22.05;;;3.00;99.90;;;;;;5070784;28;19975;-76
2023/12/03 11:27:10;;;;;;;38.95;20.23;;;3.10;99.90;;;;;;5067537;28;20044;-76
2023/12/03 11:29:52;;;;;;;41.33;21.70;;;3.10;99.90;;;;;;5053767;28;20094;-77
2023/12/03 11:32:18;;;;;;;40.83;21.48;;;3.20;99.90;;;;;;5063909;28;20098;-76
2023/12/03 11:35:08;;;;;;;39.70;20.98;;;3.30;99.90;;;;;;5071077;28;20395;-76
2023/12/03 11:37:34;;;;;;;41.13;22.02;;;3.00;99.90;;;;;;5070669;28;20063;-76
2023/12/03 11:40:11;;;;;;;36.85;20.88;;;3.00;99.90;;;;;;5055194;28;20044;-76
2023/12/03 11:42:43;;;;;;;36.15;20.83;;;3.00;99.90;;;;;;5071835;28;20500;-77
2023/12/03 11:45:16;;;;;;;39.35;20.58;;;3.00;99.90;;;;;;5055746;28;20500;-78
2023/12/03 11:48:02;;;;;;;33.90;18.35;;;4.10;99.90;;;;;;5060756;28;20049;-75
2023/12/03 11:50:29;;;;;;;36.97;20.75;;;3.00;99.90;;;;;;5055042;28;20065;-76
2023/12/03 11:52:55;;;;;;;35.15;20.02;;;3.00;99.90;;;;;;5070754;28;20111;-77
2023/12/03 11:55:23;;;;;;;37.55;22.00;;;2.90;99.90;;;;;;5065474;28;20547;-76
2023/12/03 11:57:51;;;;;;;36.60;19.65;;;2.90;99.90;;;;;;5058425;28;20115;-75
2023/12/03 12:00:17;;;;;;;37.28;20.85;;;2.90;99.90;;;;;;5065960;28;20055;-76
2023/12/03 12:02:43;;;;;;;37.25;19.23;;;2.90;99.90;;;;;;5056504;28;20055;-74
2023/12/03 12:05:09;;;;;;;39.65;20.13;;;2.80;99.90;;;;;;5062929;28;20052;-77
2023/12/03 12:07:36;;;;;;;36.33;20.55;;;2.80;99.90;;;;;;5066797;28;20044;-82
2023/12/03 12:10:03;;;;;;;36.97;21.67;;;3.20;99.90;;;;;;5057370;28;20044;-83
2023/12/03 12:12:29;;;;;;;35.50;19.90;;;2.70;99.90;;;;;;5052916;28;20059;-76
2023/12/03 12:14:55;;;;;;;32.30;17.63;;;2.70;99.90;;;;;;5053784;28;20404;-76
2023/12/03 12:17:21;;;;;;;33.80;16.98;;;2.70;99.90;;;;;;5056306;28;20057;-77
2023/12/03 12:19:47;;;;;;;34.70;19.08;;;2.70;99.90;;;;;;5055388;28;20047;-78
2023/12/03 12:22:13;;;;;;;32.75;18.05;;;2.60;99.90;;;;;;5067376;28;20080;-78
2023/12/03 12:24:40;;;;;;;34.00;16.92;;;2.60;99.90;;;;;;5071957;28;20057;-76
2023/12/03 12:27:05;;;;;;;34.95;18.08;;;2.50;99.90;;;;;;5052739;28;20044;-77
2023/12/03 12:29:31;;;;;;;34.17;19.05;;;2.50;99.90;;;;;;5062385;28;20094;-77
2023/12/03 12:31:59;;;;;;;32.35;17.33;;;2.50;99.90;;;;;;5071572;28;20127;-77